Teruhou Maru No.22 — JD3202 — position and weather

sailwx.info

Track history (hours):
 
Tides and Currents Weather Stations Pressure Air Temp Water Temp Dewpoint Dewpoint Depression Visibility Wind Speed Wind Dir Waves Ship Positions

Teruhou Maru No.22

Last reported at 2017-Mar-23 04:32 UTC. Time now 2017-Mar-23 12:26 UTC.
Position N 34°06' E 135°00'.

Length 76 m; draft 5 m.

Type: Cargo ship. MMSI: 431002552.

Date/timePositionNaut miles runAvg speedWind from/ knotsBaromVisibWave heightAir tempDewpointWater temp
2017-Mar-23 04:32N 34°06' E 135°00'2412.4
2017-Mar-23 02:33N 34°30' E 135°07'1211.5
2017-Mar-23 01:33N 34°39' E 135°16'3 2.5
2017-Mar-23 00:22N 34°42' E 135°15'0 0.0
2017-Mar-22 23:28N 34°42' E 135°15'0 0.0
2017-Mar-22 22:22N 34°42' E 135°15'0 0.0
2017-Mar-22 21:22N 34°42' E 135°15'0 0.0
2017-Mar-22 20:28N 34°42' E 135°15'0 0.0
2017-Mar-22 19:28N 34°42' E 135°15'0 0.0
2017-Mar-22 18:28N 34°42' E 135°15'0 0.0
2017-Mar-22 17:28N 34°42' E 135°15'0 0.0
2017-Mar-22 16:28N 34°42' E 135°15'0 0.0
2017-Mar-22 15:28N 34°42' E 135°15'0 0.0
2017-Mar-22 14:28N 34°42' E 135°15'0 0.0
2017-Mar-22 13:22N 34°42' E 135°15'0 0.0
2017-Mar-22 12:22N 34°42' E 135°15'0 0.0
2017-Mar-22 11:22N 34°42' E 135°15'0 0.0
2017-Mar-22 09:10N 34°42' E 135°15'0 0.0
2017-Mar-22 08:22N 34°42' E 135°15'0 0.0
2017-Mar-22 07:28N 34°42' E 135°15'0 0.0
2017-Mar-22 06:28N 34°42' E 135°15'0 0.0
2017-Mar-22 05:28N 34°42' E 135°15'0 0.0
2017-Mar-22 04:28N 34°42' E 135°15'0 0.0
2017-Mar-22 03:28N 34°42' E 135°15'0 0.5
2017-Mar-22 02:33N 34°42' E 135°15'1 0.8
2017-Mar-22 01:31N 34°42' E 135°14'0 0.0
2017-Mar-22 00:25N 34°42' E 135°14'0 0.1
2017-Mar-21 23:31N 34°42' E 135°14'0 0.0
2017-Mar-21 22:31N 34°42' E 135°14'0 0.0
2017-Mar-21 21:31N 34°42' E 135°14'0 0.0
2017-Mar-21 20:31N 34°42' E 135°14'0 0.0
2017-Mar-21 19:31N 34°42' E 135°14'0 0.0
2017-Mar-21 18:31N 34°42' E 135°14'0 0.0
2017-Mar-21 17:19N 34°42' E 135°14'0 0.0
2017-Mar-21 16:31N 34°42' E 135°14'0 0.0
2017-Mar-21 15:31N 34°42' E 135°14'0 0.0
2017-Mar-21 14:25N 34°42' E 135°14'0 0.0
2017-Mar-21 13:31N 34°42' E 135°14'0 0.0
2017-Mar-21 12:31N 34°42' E 135°14'0 0.0
2017-Mar-21 11:31N 34°42' E 135°14'0 0.0
2017-Mar-21 10:31N 34°42' E 135°14'0 0.0
2017-Mar-21 09:31N 34°42' E 135°14'0 0.0
2017-Mar-21 08:31N 34°42' E 135°14'1 0.7
2017-Mar-21 07:33N 34°41' E 135°15'1010.2
2017-Mar-21 06:33N 34°35' E 135°05'8 3.4
2017-Mar-21 04:10N 34°37' E 134°56'812.1
2017-Mar-21 03:33N 34°36' E 135°05'1313.0
2017-Mar-21 02:33N 34°37' E 135°20'5 0.5
2017-Mar-20 16:20N 34°35' E 135°27'0 0.0
2017-Mar-20 15:26N 34°35' E 135°27'0 0.0
2017-Mar-20 14:32N 34°35' E 135°27'0 0.0
2017-Mar-20 12:26N 34°35' E 135°27'0 0.0
2017-Mar-20 10:14N 34°35' E 135°27'0 0.0
2017-Mar-20 04:19N 34°35' E 135°27'0 0.0
2017-Mar-20 01:13N 34°35' E 135°27'0 0.0
2017-Mar-20 00:33N 34°35' E 135°27'9 9.0
2017-Mar-19 23:33N 34°31' E 135°17'1211.2
2017-Mar-19 22:31N 34°23' E 135°06'9 8.2
2017-Mar-19 21:25N 34°15' E 135°02'5 5.3
2017-Mar-19 20:33N 34°15' E 135°07'0 0.0
2017-Mar-19 19:31N 34°15' E 135°07'0 0.0
2017-Mar-19 18:31N 34°15' E 135°07'0 0.1
2017-Mar-19 17:31N 34°15' E 135°07'0 0.0
2017-Mar-19 16:31N 34°15' E 135°07'1 0.5
2017-Mar-19 15:24N 34°15' E 135°07'0 0.0
2017-Mar-19 14:33N 34°15' E 135°07'0 0.0
2017-Mar-19 13:33N 34°15' E 135°07'0 0.0
2017-Mar-19 12:29N 34°14' E 135°07'0 0.0
2017-Mar-19 11:33N 34°14' E 135°07'0 0.0
2017-Mar-19 10:26N 34°14' E 135°07'0 0.0
2017-Mar-19 09:24N 34°14' E 135°07'0 0.0
2017-Mar-19 08:06N 34°14' E 135°07'0 0.0
2017-Mar-19 07:33N 34°14' E 135°07'0 0.0
2017-Mar-19 06:33N 34°14' E 135°07'0 0.0
2017-Mar-19 05:33N 34°14' E 135°07'0 0.0
2017-Mar-19 04:32N 34°14' E 135°07'0 0.0
2017-Mar-19 03:32N 34°14' E 135°07'0 0.0
2017-Mar-19 02:29N 34°14' E 135°07'0 0.1
2017-Mar-19 01:32N 34°15' E 135°07'0 0.1
2017-Mar-19 00:32N 34°15' E 135°07'0 0.0
2017-Mar-18 23:23N 34°15' E 135°07'0 0.0
2017-Mar-18 22:32N 34°14' E 135°07'7 7.5
2017-Mar-18 21:33N 34°08' E 135°03'4 0.1
2017-Mar-17 01:24N 34°04' E 135°00'1112.5
2017-Mar-17 00:33N 34°15' E 134°59'1211.9
2017-Mar-16 23:33N 34°27' E 135°00'11 8.3
2017-Mar-16 22:14N 34°37' E 134°55'3 0.1
2017-Mar-15 21:04N 34°39' E 134°52'711.0
2017-Mar-15 20:23N 34°37' E 135°01'910.7
2017-Mar-15 19:33N 34°36' E 135°12'1212.1
2017-Mar-15 18:33N 34°35' E 135°26'1 0.1
2017-Mar-15 10:06N 34°35' E 135°27'1 0.4
2017-Mar-15 08:28N 34°35' E 135°27'0 0.0
2017-Mar-15 06:28N 34°35' E 135°27'0 0.0
2017-Mar-15 05:28N 34°35' E 135°27'0 0.4
2017-Mar-15 04:32N 34°35' E 135°26'5 5.1
2017-Mar-15 03:33N 34°34' E 135°21'2311.3
2017-Mar-15 01:30N 34°15' E 135°04'3 3.1
2017-Mar-15 00:33N 34°15' E 135°07'0 0.0
2017-Mar-14 23:33N 34°15' E 135°07'0 0.0
2017-Mar-14 20:32N 34°15' E 135°07'0 0.0
2017-Mar-14 19:32N 34°15' E 135°07'0 0.0
2017-Mar-14 18:32N 34°15' E 135°07'0 0.0
2017-Mar-14 17:32N 34°15' E 135°07'2 2.5
2017-Mar-14 16:33N 34°13' E 135°05'  
Track history (hours):
 
Tides and Currents Weather Stations Pressure Air Temp Water Temp Dewpoint Dewpoint Depression Visibility Wind Speed Wind Dir Waves Ship Positions

Teruhou Maru No.22

Last reported at 2017-Mar-23 04:32 UTC. Time now 2017-Mar-23 12:26 UTC.
Position N 34°06' E 135°00'.

Length 76 m; draft 5 m.

Type: Cargo ship. MMSI: 431002552.

Date/timePositionNaut miles runAvg speedWind from/ knotsBaromVisibWave heightAir tempDewpointWater temp
2017-Mar-23 04:32N 34°06' E 135°00'2412.4
2017-Mar-23 02:33N 34°30' E 135°07'1211.5
2017-Mar-23 01:33N 34°39' E 135°16'3 2.5
2017-Mar-23 00:22N 34°42' E 135°15'0 0.0
2017-Mar-22 23:28N 34°42' E 135°15'0 0.0
2017-Mar-22 22:22N 34°42' E 135°15'0 0.0
2017-Mar-22 21:22N 34°42' E 135°15'0 0.0
2017-Mar-22 20:28N 34°42' E 135°15'0 0.0
2017-Mar-22 19:28N 34°42' E 135°15'0 0.0
2017-Mar-22 18:28N 34°42' E 135°15'0 0.0
2017-Mar-22 17:28N 34°42' E 135°15'0 0.0
2017-Mar-22 16:28N 34°42' E 135°15'0 0.0
2017-Mar-22 15:28N 34°42' E 135°15'0 0.0
2017-Mar-22 14:28N 34°42' E 135°15'0 0.0
2017-Mar-22 13:22N 34°42' E 135°15'0 0.0
2017-Mar-22 12:22N 34°42' E 135°15'0 0.0
2017-Mar-22 11:22N 34°42' E 135°15'0 0.0
2017-Mar-22 09:10N 34°42' E 135°15'0 0.0
2017-Mar-22 08:22N 34°42' E 135°15'0 0.0
2017-Mar-22 07:28N 34°42' E 135°15'0 0.0
2017-Mar-22 06:28N 34°42' E 135°15'0 0.0
2017-Mar-22 05:28N 34°42' E 135°15'0 0.0
2017-Mar-22 04:28N 34°42' E 135°15'0 0.0
2017-Mar-22 03:28N 34°42' E 135°15'0 0.5
2017-Mar-22 02:33N 34°42' E 135°15'1 0.8
2017-Mar-22 01:31N 34°42' E 135°14'0 0.0
2017-Mar-22 00:25N 34°42' E 135°14'0 0.1
2017-Mar-21 23:31N 34°42' E 135°14'0 0.0
2017-Mar-21 22:31N 34°42' E 135°14'0 0.0
2017-Mar-21 21:31N 34°42' E 135°14'0 0.0
2017-Mar-21 20:31N 34°42' E 135°14'0 0.0
2017-Mar-21 19:31N 34°42' E 135°14'0 0.0
2017-Mar-21 18:31N 34°42' E 135°14'0 0.0
2017-Mar-21 17:19N 34°42' E 135°14'0 0.0
2017-Mar-21 16:31N 34°42' E 135°14'0 0.0
2017-Mar-21 15:31N 34°42' E 135°14'0 0.0
2017-Mar-21 14:25N 34°42' E 135°14'0 0.0
2017-Mar-21 13:31N 34°42' E 135°14'0 0.0
2017-Mar-21 12:31N 34°42' E 135°14'0 0.0
2017-Mar-21 11:31N 34°42' E 135°14'0 0.0
2017-Mar-21 10:31N 34°42' E 135°14'0 0.0
2017-Mar-21 09:31N 34°42' E 135°14'0 0.0
2017-Mar-21 08:31N 34°42' E 135°14'1 0.7
2017-Mar-21 07:33N 34°41' E 135°15'1010.2
2017-Mar-21 06:33N 34°35' E 135°05'8 3.4
2017-Mar-21 04:10N 34°37' E 134°56'812.1
2017-Mar-21 03:33N 34°36' E 135°05'1313.0
2017-Mar-21 02:33N 34°37' E 135°20'5 0.5
2017-Mar-20 16:20N 34°35' E 135°27'0 0.0
2017-Mar-20 15:26N 34°35' E 135°27'0 0.0
2017-Mar-20 14:32N 34°35' E 135°27'0 0.0
2017-Mar-20 12:26N 34°35' E 135°27'0 0.0
2017-Mar-20 10:14N 34°35' E 135°27'0 0.0
2017-Mar-20 04:19N 34°35' E 135°27'0 0.0
2017-Mar-20 01:13N 34°35' E 135°27'0 0.0
2017-Mar-20 00:33N 34°35' E 135°27'9 9.0
2017-Mar-19 23:33N 34°31' E 135°17'1211.2
2017-Mar-19 22:31N 34°23' E 135°06'9 8.2
2017-Mar-19 21:25N 34°15' E 135°02'5 5.3
2017-Mar-19 20:33N 34°15' E 135°07'0 0.0
2017-Mar-19 19:31N 34°15' E 135°07'0 0.0
2017-Mar-19 18:31N 34°15' E 135°07'0 0.1
2017-Mar-19 17:31N 34°15' E 135°07'0 0.0
2017-Mar-19 16:31N 34°15' E 135°07'1 0.5
2017-Mar-19 15:24N 34°15' E 135°07'0 0.0
2017-Mar-19 14:33N 34°15' E 135°07'0 0.0
2017-Mar-19 13:33N 34°15' E 135°07'0 0.0
2017-Mar-19 12:29N 34°14' E 135°07'0 0.0
2017-Mar-19 11:33N 34°14' E 135°07'0 0.0
2017-Mar-19 10:26N 34°14' E 135°07'0 0.0
2017-Mar-19 09:24N 34°14' E 135°07'0 0.0
2017-Mar-19 08:06N 34°14' E 135°07'0 0.0
2017-Mar-19 07:33N 34°14' E 135°07'0 0.0
2017-Mar-19 06:33N 34°14' E 135°07'0 0.0
2017-Mar-19 05:33N 34°14' E 135°07'0 0.0
2017-Mar-19 04:32N 34°14' E 135°07'0 0.0
2017-Mar-19 03:32N 34°14' E 135°07'0 0.0
2017-Mar-19 02:29N 34°14' E 135°07'0 0.1
2017-Mar-19 01:32N 34°15' E 135°07'0 0.1
2017-Mar-19 00:32N 34°15' E 135°07'0 0.0
2017-Mar-18 23:23N 34°15' E 135°07'0 0.0
2017-Mar-18 22:32N 34°14' E 135°07'7 7.5
2017-Mar-18 21:33N 34°08' E 135°03'4 0.1
2017-Mar-17 01:24N 34°04' E 135°00'1112.5
2017-Mar-17 00:33N 34°15' E 134°59'1211.9
2017-Mar-16 23:33N 34°27' E 135°00'11 8.3
2017-Mar-16 22:14N 34°37' E 134°55'3 0.1
2017-Mar-15 21:04N 34°39' E 134°52'711.0
2017-Mar-15 20:23N 34°37' E 135°01'910.7
2017-Mar-15 19:33N 34°36' E 135°12'1212.1
2017-Mar-15 18:33N 34°35' E 135°26'1 0.1
2017-Mar-15 10:06N 34°35' E 135°27'1 0.4
2017-Mar-15 08:28N 34°35' E 135°27'0 0.0
2017-Mar-15 06:28N 34°35' E 135°27'0 0.0
2017-Mar-15 05:28N 34°35' E 135°27'0 0.4
2017-Mar-15 04:32N 34°35' E 135°26'5 5.1
2017-Mar-15 03:33N 34°34' E 135°21'2311.3
2017-Mar-15 01:30N 34°15' E 135°04'3 3.1
2017-Mar-15 00:33N 34°15' E 135°07'0 0.0
2017-Mar-14 23:33N 34°15' E 135°07'0 0.0
2017-Mar-14 20:32N 34°15' E 135°07'0 0.0
2017-Mar-14 19:32N 34°15' E 135°07'0 0.0
2017-Mar-14 18:32N 34°15' E 135°07'0 0.0
2017-Mar-14 17:32N 34°15' E 135°07'2 2.5
2017-Mar-14 16:33N 34°13' E 135°05'  

Dump ship's entire track history